Time;durP1;ratioP1;P1;durP2;ratioP2;P2;SDS_P1;SDS_P2;PMS_P1;PMS_P2;Temp;Humidity;BMP_temperature;BMP_pressure;BME280_temperature;BME280_humidity;BME280_pressure;Samples;Min_cycle;Max_cycle;Signal;HPM_P1;HPM_P2
2023/02/04 00:00:08;;;;;;;14.47;2.87;;;8.60;99.90;;;;;;5028666;28;20267;-61
2023/02/04 00:02:37;;;;;;;12.63;3.23;;;8.50;99.90;;;;;;5028825;28;20230;-61
2023/02/04 00:05:04;;;;;;;11.40;2.60;;;8.40;99.90;;;;;;5031959;28;20243;-62
2023/02/04 00:07:30;;;;;;;10.40;2.13;;;8.50;99.90;;;;;;5028719;28;20237;-61
2023/02/04 00:09:57;;;;;;;15.13;3.03;;;8.60;99.90;;;;;;5028962;28;20216;-61
2023/02/04 00:12:24;;;;;;;12.57;2.30;;;8.50;99.90;;;;;;5031320;28;20201;-61
2023/02/04 00:14:51;;;;;;;13.83;2.20;;;8.60;99.90;;;;;;5030849;28;20202;-61
2023/02/04 00:17:18;;;;;;;10.73;2.20;;;8.60;99.90;;;;;;5027009;28;20226;-62
2023/02/04 00:19:44;;;;;;;14.57;2.57;;;8.50;99.90;;;;;;5031976;28;20221;-61
2023/02/04 00:22:11;;;;;;;10.63;2.47;;;8.50;99.90;;;;;;5028100;28;20304;-61
2023/02/04 00:24:38;;;;;;;12.13;2.43;;;8.50;99.90;;;;;;5032464;28;20198;-61
2023/02/04 00:27:05;;;;;;;9.90;2.80;;;8.50;99.90;;;;;;5028805;28;20834;-60
2023/02/04 00:29:32;;;;;;;15.43;3.03;;;8.60;99.90;;;;;;5031278;28;20206;-60
2023/02/04 00:31:59;;;;;;;12.87;3.80;;;8.60;99.90;;;;;;5026846;28;20204;-64
2023/02/04 00:34:26;;;;;;;13.30;1.97;;;8.70;99.90;;;;;;5028892;28;20216;-59
2023/02/04 00:36:53;;;;;;;11.27;2.87;;;8.60;99.90;;;;;;5030950;28;20258;-59
2023/02/04 00:39:20;;;;;;;15.87;4.10;;;8.60;99.90;;;;;;5029915;28;20320;-59
2023/02/04 00:41:47;;;;;;;10.83;2.77;;;8.60;99.90;;;;;;5037245;28;20245;-60
2023/02/04 00:44:13;;;;;;;9.67;2.93;;;8.50;99.90;;;;;;5035554;28;20558;-62
2023/02/04 00:46:41;;;;;;;14.60;3.50;;;8.50;99.90;;;;;;5035694;28;20281;-62
2023/02/04 00:49:09;;;;;;;11.93;2.67;;;8.50;99.90;;;;;;5035849;28;20291;-62
2023/02/04 00:51:40;;;;;;;9.10;2.17;;;8.50;99.90;;;;;;5037140;28;20661;-62
2023/02/04 00:54:06;;;;;;;10.63;2.73;;;8.40;99.90;;;;;;5033830;28;20209;-62
2023/02/04 00:56:33;;;;;;;16.27;3.63;;;8.40;99.90;;;;;;5034677;28;20210;-59
2023/02/04 00:59:01;;;;;;;14.03;3.50;;;8.30;99.90;;;;;;5025952;28;20773;-59
2023/02/04 01:01:28;;;;;;;21.50;3.37;;;8.50;99.90;;;;;;5027300;28;21001;-60
2023/02/04 01:03:55;;;;;;;13.27;3.33;;;8.50;99.90;;;;;;5029250;28;20194;-61
2023/02/04 01:06:22;;;;;;;10.20;2.57;;;8.50;99.90;;;;;;5032854;28;20204;-61
2023/02/04 01:08:48;;;;;;;12.23;2.77;;;8.40;99.90;;;;;;5031877;28;20667;-60
2023/02/04 01:11:16;;;;;;;17.13;3.23;;;8.40;99.90;;;;;;5036872;28;20297;-60
2023/02/04 01:13:42;;;;;;;14.30;3.13;;;8.40;99.90;;;;;;5031853;28;20289;-61
2023/02/04 01:16:09;;;;;;;11.03;3.13;;;8.40;99.90;;;;;;5035657;28;20573;-60
2023/02/04 01:18:37;;;;;;;14.83;3.60;;;8.40;99.90;;;;;;5039362;28;20231;-60
2023/02/04 01:21:04;;;;;;;16.80;3.53;;;8.40;99.90;;;;;;5025732;28;20245;-60
2023/02/04 01:23:31;;;;;;;11.03;3.10;;;8.40;99.90;;;;;;5041727;28;20202;-61
2023/02/04 01:25:58;;;;;;;17.10;3.20;;;8.40;99.90;;;;;;5035311;28;20208;-63
2023/02/04 01:28:25;;;;;;;14.40;2.87;;;8.40;99.90;;;;;;5035477;28;20648;-60
2023/02/04 01:30:51;;;;;;;23.90;3.40;;;8.30;99.90;;;;;;5037435;28;20210;-60
2023/02/04 01:33:18;;;;;;;15.17;3.83;;;8.30;99.90;;;;;;5039791;28;20626;-60
2023/02/04 01:35:45;;;;;;;17.00;4.17;;;8.40;99.90;;;;;;5035828;28;20711;-60
2023/02/04 01:38:12;;;;;;;15.07;3.50;;;8.40;99.90;;;;;;5037713;28;20551;-60
2023/02/04 01:40:39;;;;;;;11.50;2.73;;;8.30;99.90;;;;;;5039562;28;20222;-60
2023/02/04 01:43:06;;;;;;;17.57;3.43;;;8.40;99.90;;;;;;5036974;28;20193;-60
2023/02/04 01:45:34;;;;;;;11.80;2.90;;;8.30;99.90;;;;;;5040092;28;20210;-60
2023/02/04 01:48:04;;;;;;;15.77;3.50;;;8.30;99.90;;;;;;5035996;28;20202;-63
2023/02/04 01:50:31;;;;;;;13.10;3.07;;;8.40;99.90;;;;;;5037550;28;20211;-60
2023/02/04 01:52:59;;;;;;;13.90;2.97;;;8.40;99.90;;;;;;5037073;28;20292;-61
2023/02/04 01:55:30;;;;;;;15.30;3.50;;;8.40;99.90;;;;;;5035205;28;20204;-60
2023/02/04 01:57:57;;;;;;;16.90;3.00;;;8.40;99.90;;;;;;5033552;28;20209;-60
2023/02/04 02:00:35;;;;;;;22.60;3.63;;;8.30;99.90;;;;;;5031976;28;20664;-60
2023/02/04 02:03:03;;;;;;;15.93;3.13;;;8.40;99.90;;;;;;5035183;28;21101;-60
2023/02/04 02:05:50;;;;;;;17.83;3.60;;;8.30;99.90;;;;;;5032757;28;20295;-60
2023/02/04 02:08:18;;;;;;;9.93;2.87;;;8.40;99.90;;;;;;5033366;28;20345;-60
2023/02/04 02:10:48;;;;;;;19.77;3.27;;;8.40;99.90;;;;;;5037699;28;20245;-60
2023/02/04 02:13:17;;;;;;;17.93;3.33;;;8.40;99.90;;;;;;5021586;28;20654;-61
2023/02/04 02:15:46;;;;;;;18.53;2.80;;;8.30;99.90;;;;;;5030493;28;20232;-60
2023/02/04 02:18:13;;;;;;;20.93;3.80;;;8.30;99.90;;;;;;5036644;28;20252;-60
2023/02/04 02:20:43;;;;;;;16.70;3.30;;;8.30;99.90;;;;;;5037025;28;20716;-60
2023/02/04 02:23:44;;;;;;;17.00;3.47;;;8.30;99.90;;;;;;5037856;28;20547;-60
2023/02/04 02:26:11;;;;;;;19.80;3.07;;;8.20;99.90;;;;;;5032079;28;20292;-60
2023/02/04 02:28:38;;;;;;;13.03;2.90;;;8.20;99.90;;;;;;5028387;28;20203;-60
2023/02/04 02:31:05;;;;;;;17.13;3.50;;;8.20;99.90;;;;;;5028642;28;20719;-60
2023/02/04 02:33:33;;;;;;;14.73;3.07;;;8.20;99.90;;;;;;5031331;28;20204;-60
2023/02/04 02:36:00;;;;;;;24.70;3.87;;;8.10;99.90;;;;;;5035395;28;20262;-60
2023/02/04 02:38:26;;;;;;;18.57;3.87;;;8.10;99.90;;;;;;5036075;28;20678;-60
2023/02/04 02:40:54;;;;;;;15.90;3.53;;;8.10;99.90;;;;;;5037711;28;20592;-60
2023/02/04 02:43:24;;;;;;;18.27;4.90;;;8.10;99.90;;;;;;5035609;28;20302;-59
2023/02/04 02:45:51;;;;;;;22.67;5.00;;;8.10;99.90;;;;;;5037364;28;20254;-60
2023/02/04 02:48:18;;;;;;;16.20;4.67;;;7.90;99.90;;;;;;5036016;28;20216;-60
2023/02/04 02:50:47;;;;;;;11.47;4.03;;;7.80;99.90;;;;;;5037294;28;20290;-60
2023/02/04 02:53:18;;;;;;;23.00;4.37;;;7.80;99.90;;;;;;5037621;28;20219;-62
2023/02/04 02:55:46;;;;;;;13.87;3.70;;;7.90;99.90;;;;;;5036454;28;20294;-60
2023/02/04 02:58:26;;;;;;;15.60;3.90;;;7.70;99.90;;;;;;5037293;28;20272;-62
2023/02/04 03:00:54;;;;;;;14.47;4.03;;;7.90;99.90;;;;;;5034703;28;20227;-60
2023/02/04 03:03:27;;;;;;;15.50;3.73;;;7.90;99.90;;;;;;5039716;28;20674;-60
2023/02/04 03:05:58;;;;;;;15.67;3.50;;;7.80;99.90;;;;;;5035435;28;20243;-60
2023/02/04 03:08:27;;;;;;;19.03;3.57;;;7.80;99.90;;;;;;5036264;28;20237;-61
2023/02/04 03:10:54;;;;;;;17.43;3.60;;;7.80;99.90;;;;;;5033874;28;20522;-60
2023/02/04 03:13:21;;;;;;;15.10;4.03;;;7.70;99.90;;;;;;5033605;28;20221;-60
2023/02/04 03:15:48;;;;;;;19.10;3.87;;;7.80;99.90;;;;;;5032352;28;20208;-60
2023/02/04 03:18:18;;;;;;;14.37;3.40;;;7.90;99.90;;;;;;5037519;28;20652;-60
2023/02/04 03:20:48;;;;;;;14.47;3.60;;;7.80;99.90;;;;;;5019904;28;20556;-60
2023/02/04 03:23:15;;;;;;;15.80;3.20;;;7.80;99.90;;;;;;5039377;28;20545;-60
2023/02/04 03:25:42;;;;;;;19.30;3.50;;;7.80;99.90;;;;;;5031568;28;20765;-60
2023/02/04 03:28:09;;;;;;;13.23;4.10;;;7.80;99.90;;;;;;5048692;28;20207;-61
2023/02/04 03:30:36;;;;;;;15.07;3.70;;;7.80;99.90;;;;;;5019104;28;20207;-60
2023/02/04 03:33:03;;;;;;;15.57;3.73;;;7.90;99.90;;;;;;5033882;28;20206;-61
2023/02/04 03:35:30;;;;;;;16.00;3.83;;;8.00;99.90;;;;;;5030021;28;20216;-62
2023/02/04 03:37:56;;;;;;;16.67;4.00;;;8.00;99.90;;;;;;5027321;28;20667;-60
2023/02/04 03:40:23;;;;;;;16.97;4.47;;;8.00;99.90;;;;;;5029802;28;20759;-60
2023/02/04 03:42:50;;;;;;;16.23;4.83;;;7.90;99.90;;;;;;5035240;28;20209;-60
2023/02/04 03:45:17;;;;;;;23.13;5.93;;;7.90;99.90;;;;;;5035241;28;20247;-60
2023/02/04 03:47:43;;;;;;;12.87;5.27;;;7.70;99.90;;;;;;5032931;28;20204;-60
2023/02/04 03:50:12;;;;;;;21.67;4.60;;;7.60;99.90;;;;;;5028893;28;21417;-60
2023/02/04 03:52:39;;;;;;;19.17;4.77;;;7.80;99.90;;;;;;5029379;28;21000;-60
2023/02/04 03:55:06;;;;;;;14.77;4.33;;;7.90;99.90;;;;;;5037426;28;20287;-60
2023/02/04 03:57:33;;;;;;;20.37;4.73;;;7.80;99.90;;;;;;5034903;28;20287;-60
2023/02/04 04:00:00;;;;;;;22.30;5.20;;;7.80;99.90;;;;;;5035701;28;20903;-61
2023/02/04 04:02:27;;;;;;;15.53;4.70;;;7.80;99.90;;;;;;5035435;28;20196;-60
2023/02/04 04:04:53;;;;;;;12.60;4.23;;;7.70;99.90;;;;;;5035628;28;20209;-60
2023/02/04 04:07:20;;;;;;;15.07;4.53;;;7.80;99.90;;;;;;5036178;28;20254;-60
2023/02/04 04:09:47;;;;;;;20.97;4.77;;;7.90;99.90;;;;;;5033991;28;20228;-60
2023/02/04 04:12:14;;;;;;;16.27;4.43;;;7.90;99.90;;;;;;5037039;28;20601;-65
2023/02/04 04:14:40;;;;;;;17.07;4.43;;;7.90;99.90;;;;;;5033712;28;20653;-60
2023/02/04 04:17:07;;;;;;;15.73;5.10;;;7.80;99.90;;;;;;5035982;28;20211;-60
2023/02/04 04:19:34;;;;;;;16.03;4.40;;;7.80;99.90;;;;;;5034330;28;20198;-60
2023/02/04 04:22:01;;;;;;;18.30;4.63;;;7.80;99.90;;;;;;5037838;28;20204;-60
2023/02/04 04:24:27;;;;;;;22.40;6.00;;;7.60;99.90;;;;;;5036970;28;20250;-60
2023/02/04 04:26:54;;;;;;;16.00;5.10;;;7.60;99.90;;;;;;5036991;28;20234;-60
2023/02/04 04:29:21;;;;;;;17.13;4.23;;;7.60;99.90;;;;;;5036000;28;20206;-60
2023/02/04 04:31:48;;;;;;;19.30;4.20;;;7.60;99.90;;;;;;5036130;28;20273;-60
2023/02/04 04:34:15;;;;;;;18.63;4.20;;;7.60;99.90;;;;;;5037415;28;20213;-60
2023/02/04 04:36:41;;;;;;;10.20;3.53;;;7.20;99.90;;;;;;5032564;28;20230;-60
2023/02/04 04:39:08;;;;;;;6.83;3.20;;;6.80;99.90;;;;;;5035325;28;20219;-60
2023/02/04 04:41:35;;;;;;;7.07;1.90;;;6.50;99.90;;;;;;5028131;28;20318;-60
2023/02/04 04:44:02;;;;;;;10.60;3.10;;;6.60;99.90;;;;;;5029953;28;20542;-60
2023/02/04 04:46:29;;;;;;;12.93;2.90;;;6.60;99.90;;;;;;5027260;28;20221;-60
2023/02/04 04:48:55;;;;;;;9.33;2.83;;;6.60;99.90;;;;;;5035306;28;20543;-62
2023/02/04 04:51:22;;;;;;;9.10;2.80;;;6.80;99.90;;;;;;5035420;28;20651;-60
2023/02/04 04:53:49;;;;;;;8.57;3.20;;;6.80;99.90;;;;;;5040220;28;20205;-60
2023/02/04 04:56:17;;;;;;;10.87;3.00;;;6.90;99.90;;;;;;5036319;28;20203;-60
2023/02/04 04:58:44;;;;;;;9.47;2.90;;;6.80;99.90;;;;;;5040587;28;20300;-60
2023/02/04 05:01:11;;;;;;;10.37;3.23;;;6.60;99.90;;;;;;5033642;28;20228;-60
2023/02/04 05:03:38;;;;;;;13.63;4.10;;;6.40;99.90;;;;;;5041600;28;20208;-60
2023/02/04 05:06:05;;;;;;;9.47;3.03;;;6.40;99.90;;;;;;5038713;28;20665;-64
2023/02/04 05:08:33;;;;;;;9.77;3.20;;;6.40;99.90;;;;;;5038556;28;20711;-60
2023/02/04 05:10:59;;;;;;;9.13;3.07;;;6.40;99.90;;;;;;5039479;28;20204;-60
2023/02/04 05:13:26;;;;;;;8.17;3.03;;;6.40;99.90;;;;;;5040500;28;20204;-60
2023/02/04 05:15:53;;;;;;;12.77;3.47;;;6.50;99.90;;;;;;5038261;28;20254;-60
2023/02/04 05:18:19;;;;;;;12.50;3.27;;;6.50;99.90;;;;;;5036801;28;20675;-60
2023/02/04 05:20:46;;;;;;;10.00;3.00;;;6.60;99.90;;;;;;5037324;28;20239;-60
2023/02/04 05:23:13;;;;;;;5.67;2.27;;;6.70;99.90;;;;;;5037429;28;20201;-60
2023/02/04 05:25:40;;;;;;;9.60;2.93;;;6.40;99.90;;;;;;5039069;28;20252;-60
2023/02/04 05:28:07;;;;;;;11.53;3.23;;;6.20;99.90;;;;;;5031899;28;20233;-60
2023/02/04 05:30:34;;;;;;;5.37;2.67;;;6.10;99.90;;;;;;5040598;28;20684;-60
2023/02/04 05:33:01;;;;;;;5.07;2.70;;;6.00;99.90;;;;;;5039101;28;20207;-60
2023/02/04 05:35:28;;;;;;;4.70;3.13;;;6.00;99.90;;;;;;5038935;28;20259;-60
2023/02/04 05:37:54;;;;;;;5.93;2.90;;;6.10;99.90;;;;;;5037257;28;20202;-60
2023/02/04 05:40:21;;;;;;;7.90;3.53;;;6.00;99.90;;;;;;5041713;28;20229;-60
2023/02/04 05:42:48;;;;;;;3.73;2.60;;;6.10;99.90;;;;;;5037407;28;20263;-60
2023/02/04 05:45:15;;;;;;;12.70;3.80;;;6.20;99.90;;;;;;5037606;28;20234;-60
2023/02/04 05:47:42;;;;;;;7.57;3.83;;;6.40;99.90;;;;;;5034040;28;20204;-60
2023/02/04 05:50:10;;;;;;;8.97;3.83;;;6.60;99.90;;;;;;5036601;28;20285;-60
2023/02/04 05:52:36;;;;;;;9.97;4.37;;;6.60;99.90;;;;;;5040455;28;20227;-60
2023/02/04 05:55:04;;;;;;;12.37;4.07;;;6.60;99.90;;;;;;5039086;28;20223;-60
2023/02/04 05:57:31;;;;;;;11.70;4.63;;;6.80;99.90;;;;;;5038099;28;20248;-60
2023/02/04 05:59:57;;;;;;;12.30;5.30;;;6.80;99.90;;;;;;5034490;28;20298;-60
2023/02/04 06:02:24;;;;;;;15.03;5.47;;;6.90;99.90;;;;;;5030775;28;20587;-60
2023/02/04 06:04:51;;;;;;;14.27;5.50;;;6.90;99.90;;;;;;5031173;28;20209;-60
2023/02/04 06:07:18;;;;;;;10.83;5.27;;;7.00;99.90;;;;;;5025530;28;21452;-60
2023/02/04 06:09:45;;;;;;;14.47;5.67;;;7.00;99.90;;;;;;5036630;28;20287;-60
2023/02/04 06:12:11;;;;;;;14.63;5.67;;;7.00;99.90;;;;;;5037913;28;20297;-60
2023/02/04 06:14:38;;;;;;;12.33;4.90;;;7.00;99.90;;;;;;5038571;28;20295;-60
2023/02/04 06:17:05;;;;;;;17.00;6.20;;;7.00;99.90;;;;;;5038218;28;20624;-60
2023/02/04 06:19:31;;;;;;;11.27;5.53;;;7.10;99.90;;;;;;5035945;28;20197;-60
2023/02/04 06:21:58;;;;;;;16.77;7.00;;;7.10;99.90;;;;;;5035989;28;20306;-60
2023/02/04 06:24:25;;;;;;;16.40;5.37;;;7.30;99.90;;;;;;5033708;28;20287;-61
2023/02/04 06:26:52;;;;;;;15.43;6.03;;;7.30;99.90;;;;;;5036939;28;20209;-60
2023/02/04 06:29:18;;;;;;;15.57;5.83;;;7.30;99.90;;;;;;5035623;28;20630;-60
2023/02/04 06:31:45;;;;;;;16.13;6.50;;;7.40;99.90;;;;;;5037475;28;20253;-60
2023/02/04 06:34:12;;;;;;;14.07;6.10;;;7.30;99.90;;;;;;5039309;28;20655;-60
2023/02/04 06:36:39;;;;;;;12.77;6.80;;;7.30;99.90;;;;;;5036415;28;20226;-60
2023/02/04 06:39:06;;;;;;;16.00;6.10;;;7.50;99.90;;;;;;5037504;28;20291;-61
2023/02/04 06:41:33;;;;;;;14.83;6.20;;;7.50;99.90;;;;;;5036095;28;20226;-60
2023/02/04 06:43:59;;;;;;;14.70;6.57;;;7.50;99.90;;;;;;5037557;28;20568;-60
2023/02/04 06:46:26;;;;;;;16.33;6.57;;;7.30;99.90;;;;;;5035835;28;20226;-60
2023/02/04 06:48:53;;;;;;;17.60;6.80;;;7.20;99.90;;;;;;5034440;28;20277;-60
2023/02/04 06:51:20;;;;;;;15.83;6.53;;;7.30;99.90;;;;;;5034819;28;20685;-60
2023/02/04 06:53:47;;;;;;;16.70;6.63;;;7.20;99.90;;;;;;5037007;28;20883;-60
2023/02/04 06:56:13;;;;;;;18.17;7.50;;;7.30;99.90;;;;;;5035613;28;20289;-60
2023/02/04 06:58:40;;;;;;;13.93;6.73;;;7.30;99.90;;;;;;5032475;28;20681;-60
2023/02/04 07:01:07;;;;;;;18.20;7.43;;;7.20;99.90;;;;;;5025673;28;20238;-61
2023/02/04 07:03:33;;;;;;;17.93;7.37;;;7.20;99.90;;;;;;5036303;28;20205;-60
2023/02/04 07:06:00;;;;;;;18.30;6.90;;;7.30;99.90;;;;;;5032426;28;20205;-62
2023/02/04 07:08:27;;;;;;;17.17;7.07;;;7.40;99.90;;;;;;5036501;28;20710;-60
2023/02/04 07:10:54;;;;;;;12.53;5.93;;;7.30;99.90;;;;;;5025537;28;20239;-61
2023/02/04 07:13:21;;;;;;;13.50;6.63;;;7.10;99.90;;;;;;5033622;28;20586;-60
2023/02/04 07:15:48;;;;;;;17.07;6.87;;;6.90;99.90;;;;;;5031773;28;20335;-61
2023/02/04 07:18:15;;;;;;;18.93;5.93;;;7.00;99.90;;;;;;5034602;28;20654;-60
2023/02/04 07:20:42;;;;;;;18.27;7.77;;;6.90;99.90;;;;;;5035804;28;20218;-60
2023/02/04 07:23:09;;;;;;;13.03;6.13;;;6.80;99.90;;;;;;5034913;28;20206;-61
2023/02/04 07:25:35;;;;;;;16.60;6.70;;;6.80;99.90;;;;;;5037221;28;20389;-60
2023/02/04 07:28:04;;;;;;;19.97;7.60;;;6.80;99.90;;;;;;5030098;28;20205;-61
2023/02/04 07:30:31;;;;;;;15.03;6.80;;;7.10;99.90;;;;;;5035790;28;20229;-60
2023/02/04 07:32:58;;;;;;;15.13;6.90;;;7.20;99.90;;;;;;5033073;28;20404;-60
2023/02/04 07:35:25;;;;;;;18.57;8.03;;;7.10;99.90;;;;;;4671441;28;9999959;-61
2023/02/04 07:37:52;;;;;;;16.07;6.77;;;7.10;99.90;;;;;;5014552;28;20690;-61
2023/02/04 07:40:20;;;;;;;19.40;7.90;;;7.30;99.90;;;;;;5024175;28;20198;-60
2023/02/04 07:42:47;;;;;;;19.57;7.17;;;7.20;99.90;;;;;;5029950;28;20322;-61
2023/02/04 07:45:14;;;;;;;17.90;7.33;;;7.20;99.90;;;;;;5031903;28;20196;-61
2023/02/04 07:47:40;;;;;;;19.70;7.30;;;7.30;99.90;;;;;;5027731;28;20201;-61
2023/02/04 07:50:07;;;;;;;18.80;7.77;;;7.40;99.90;;;;;;5034014;28;20655;-60
2023/02/04 07:52:34;;;;;;;29.90;8.33;;;7.30;99.90;;;;;;5024580;28;20626;-61
2023/02/04 07:55:01;;;;;;;16.97;7.50;;;7.50;99.90;;;;;;5025037;28;20215;-61
2023/02/04 07:57:28;;;;;;;15.43;7.97;;;7.60;99.90;;;;;;5024008;28;20280;-63
2023/02/04 07:59:55;;;;;;;17.67;7.50;;;7.70;99.90;;;;;;5022807;28;20297;-60
2023/02/04 08:02:22;;;;;;;18.43;7.70;;;7.80;99.90;;;;;;5014053;28;21544;-61
2023/02/04 08:04:49;;;;;;;18.60;7.50;;;7.80;99.90;;;;;;5017703;28;20230;-63
2023/02/04 08:07:16;;;;;;;20.57;8.40;;;7.80;99.90;;;;;;5017287;28;20301;-61
2023/02/04 08:09:42;;;;;;;22.43;8.23;;;7.70;99.90;;;;;;5017855;28;20204;-61
2023/02/04 08:12:09;;;;;;;24.07;9.00;;;7.60;99.90;;;;;;5019089;28;20210;-61
2023/02/04 08:14:36;;;;;;;22.07;8.30;;;7.70;99.90;;;;;;5015451;28;20296;-61
2023/02/04 08:17:03;;;;;;;19.83;7.53;;;7.60;99.90;;;;;;5019351;28;20607;-61
2023/02/04 08:19:30;;;;;;;21.13;7.87;;;7.70;99.90;;;;;;5023808;28;20573;-60
2023/02/04 08:21:57;;;;;;;25.90;8.13;;;7.70;99.90;;;;;;5021455;28;20570;-61
2023/02/04 08:24:23;;;;;;;23.57;7.93;;;7.70;99.90;;;;;;5023678;28;20216;-60
2023/02/04 08:26:51;;;;;;;35.53;8.50;;;7.60;99.90;;;;;;5027553;28;20203;-66
2023/02/04 08:29:17;;;;;;;22.43;8.43;;;7.60;99.90;;;;;;5030142;28;20289;-61
2023/02/04 08:31:46;;;;;;;23.03;8.77;;;7.60;99.90;;;;;;5035529;28;21376;-61
2023/02/04 08:34:13;;;;;;;23.70;7.53;;;7.70;99.90;;;;;;5037367;28;20229;-60
2023/02/04 08:36:40;;;;;;;24.67;8.90;;;7.80;99.90;;;;;;5023861;28;20244;-61
2023/02/04 08:39:07;;;;;;;35.20;9.53;;;8.00;99.90;;;;;;5025181;28;20289;-60
2023/02/04 08:41:33;;;;;;;24.53;8.30;;;8.10;99.90;;;;;;5027317;28;20341;-61
2023/02/04 08:44:00;;;;;;;25.13;7.77;;;8.10;99.90;;;;;;5027980;28;20201;-61
2023/02/04 08:46:27;;;;;;;23.80;7.80;;;8.10;99.90;;;;;;5026888;28;20204;-60
2023/02/04 08:48:54;;;;;;;20.77;7.90;;;8.10;99.90;;;;;;5027773;28;20800;-60
2023/02/04 08:51:20;;;;;;;23.77;8.40;;;8.10;99.90;;;;;;5026946;28;20221;-61
2023/02/04 08:53:47;;;;;;;22.07;8.23;;;8.20;99.90;;;;;;5032397;28;20244;-61
2023/02/04 08:56:19;;;;;;;26.80;8.10;;;8.20;99.90;;;;;;5013611;28;20219;-61
2023/02/04 08:58:49;;;;;;;27.93;8.17;;;8.20;99.90;;;;;;5025138;28;20213;-61
2023/02/04 09:01:15;;;;;;;29.77;8.43;;;8.20;99.90;;;;;;5025131;28;20222;-61
2023/02/04 09:03:42;;;;;;;30.73;8.80;;;8.30;99.90;;;;;;5031572;28;20281;-61
2023/02/04 09:06:09;;;;;;;30.33;8.20;;;8.40;99.90;;;;;;5024036;28;20234;-61
2023/02/04 09:08:36;;;;;;;33.80;8.77;;;8.50;99.90;;;;;;5015664;28;21221;-61
2023/02/04 09:11:03;;;;;;;20.33;7.80;;;8.60;99.90;;;;;;5033955;28;21066;-61
2023/02/04 09:13:31;;;;;;;24.10;8.17;;;8.60;99.90;;;;;;5040400;28;20213;-61
2023/02/04 09:15:58;;;;;;;24.33;8.37;;;8.50;99.90;;;;;;5032225;28;20206;-61
2023/02/04 09:18:25;;;;;;;22.87;8.67;;;8.50;99.90;;;;;;5034177;28;20200;-61
2023/02/04 09:20:52;;;;;;;22.37;7.93;;;8.50;99.90;;;;;;5030419;28;20209;-61
2023/02/04 09:23:19;;;;;;;19.83;7.53;;;8.70;99.90;;;;;;5037453;28;20216;-61
2023/02/04 09:25:46;;;;;;;29.10;9.80;;;8.90;99.90;;;;;;5035219;28;20332;-61
2023/02/04 09:28:15;;;;;;;22.57;7.00;;;9.00;99.90;;;;;;5033691;28;20286;-61
2023/02/04 09:30:45;;;;;;;17.23;7.33;;;9.00;99.90;;;;;;5035443;28;20257;-63
2023/02/04 09:33:13;;;;;;;28.93;8.20;;;9.10;99.90;;;;;;5036443;28;20202;-61
2023/02/04 09:35:40;;;;;;;28.30;8.90;;;9.20;99.90;;;;;;5034640;28;20213;-61
2023/02/04 09:38:08;;;;;;;23.63;8.23;;;9.20;99.90;;;;;;5030328;28;20226;-61
2023/02/04 09:40:40;;;;;;;25.93;7.07;;;9.10;99.90;;;;;;5038738;28;20209;-61
2023/02/04 09:43:13;;;;;;;26.90;7.47;;;9.20;99.90;;;;;;5032466;28;20249;-61
2023/02/04 09:45:40;;;;;;;17.80;6.57;;;9.20;99.90;;;;;;5037317;28;20207;-61
2023/02/04 09:48:12;;;;;;;22.87;7.10;;;9.10;99.90;;;;;;5036947;28;20757;-61
2023/02/04 09:50:39;;;;;;;17.53;6.90;;;9.20;99.90;;;;;;5035321;28;20197;-61
2023/02/04 09:53:09;;;;;;;27.63;7.17;;;9.20;99.90;;;;;;5038888;28;20208;-61
2023/02/04 09:55:40;;;;;;;22.97;6.60;;;9.30;99.90;;;;;;5019788;28;20292;-62
2023/02/04 09:58:21;;;;;;;24.30;6.33;;;9.40;99.90;;;;;;5030357;28;20331;-61
2023/02/04 10:01:09;;;;;;;26.80;6.23;;;9.40;99.90;;;;;;5027421;28;20220;-61
2023/02/04 10:03:36;;;;;;;18.33;6.27;;;9.40;99.90;;;;;;5018877;28;20286;-63
2023/02/04 10:06:03;;;;;;;28.70;6.37;;;9.50;99.90;;;;;;5032023;28;20791;-61
2023/02/04 10:08:32;;;;;;;16.27;4.53;;;9.60;99.90;;;;;;5026459;28;20341;-61
2023/02/04 10:11:00;;;;;;;16.27;5.60;;;9.70;99.90;;;;;;5027656;28;20210;-61
2023/02/04 10:13:32;;;;;;;23.10;4.80;;;9.60;99.90;;;;;;5027950;28;20241;-61
2023/02/04 10:16:00;;;;;;;22.03;5.37;;;9.50;99.90;;;;;;5021584;28;20331;-61
2023/02/04 10:18:30;;;;;;;27.77;6.00;;;9.50;99.90;;;;;;5017628;28;20206;-61
2023/02/04 10:21:23;;;;;;;23.70;5.30;;;9.60;99.90;;;;;;5020292;28;20287;-61
2023/02/04 10:23:53;;;;;;;27.20;5.60;;;9.60;99.90;;;;;;5010337;28;20294;-61
2023/02/04 10:26:22;;;;;;;22.10;7.00;;;9.70;99.90;;;;;;5020793;28;20205;-61
2023/02/04 10:28:48;;;;;;;24.27;5.97;;;9.80;99.90;;;;;;5020266;28;20985;-60
2023/02/04 10:31:36;;;;;;;18.70;6.87;;;10.00;99.90;;;;;;5015148;28;20581;-61
2023/02/04 10:34:04;;;;;;;18.33;6.10;;;10.10;99.90;;;;;;5020873;28;20246;-64
2023/02/04 10:36:31;;;;;;;21.27;5.90;;;9.90;99.90;;;;;;5020221;28;20719;-61
2023/02/04 10:39:04;;;;;;;21.17;5.90;;;10.00;99.90;;;;;;5020239;28;20261;-60
2023/02/04 10:41:32;;;;;;;19.40;6.50;;;10.00;99.90;;;;;;5018735;28;20209;-61
2023/02/04 10:44:09;;;;;;;20.40;6.97;;;10.20;99.90;;;;;;5024644;28;20207;-60
2023/02/04 10:46:36;;;;;;;21.90;5.80;;;10.30;99.90;;;;;;5019967;28;20216;-61
2023/02/04 10:49:21;;;;;;;23.57;6.07;;;10.40;99.90;;;;;;5009190;28;20210;-61
2023/02/04 10:51:49;;;;;;;21.40;5.67;;;10.50;99.90;;;;;;5023032;28;20209;-61
2023/02/04 10:54:30;;;;;;;18.63;5.50;;;10.70;99.90;;;;;;5026425;28;20257;-61
2023/02/04 10:57:03;;;;;;;18.80;6.17;;;10.80;99.90;;;;;;5022949;28;20210;-61
2023/02/04 10:59:30;;;;;;;16.00;5.20;;;10.80;99.90;;;;;;5030055;28;20670;-61
2023/02/04 11:01:59;;;;;;;15.27;5.30;;;10.90;99.90;;;;;;5026350;28;20220;-60
2023/02/04 11:04:27;;;;;;;18.37;5.80;;;11.00;99.90;;;;;;5025256;28;20223;-64
2023/02/04 11:06:54;;;;;;;20.37;5.90;;;10.90;99.90;;;;;;5024611;28;20260;-61
2023/02/04 11:09:21;;;;;;;25.10;5.47;;;10.60;99.90;;;;;;5021861;28;20752;-62
2023/02/04 11:11:49;;;;;;;15.60;4.83;;;10.80;99.90;;;;;;5025021;28;21921;-60
2023/02/04 11:14:22;;;;;;;17.60;5.57;;;11.10;99.90;;;;;;5026915;28;20238;-60
2023/02/04 11:16:49;;;;;;;17.27;5.30;;;11.30;99.90;;;;;;5026310;28;20235;-61
2023/02/04 11:19:31;;;;;;;20.20;5.20;;;11.50;99.90;;;;;;5024538;28;20203;-61
2023/02/04 11:22:07;;;;;;;20.23;5.30;;;11.30;99.90;;;;;;5025525;28;20335;-61
2023/02/04 11:24:34;;;;;;;16.93;4.60;;;11.10;99.90;;;;;;5020792;28;20204;-63
2023/02/04 11:27:18;;;;;;;11.53;3.53;;;10.80;99.90;;;;;;5022023;28;20204;-61
2023/02/04 11:29:46;;;;;;;15.77;3.77;;;10.60;99.90;;;;;;5023426;28;20211;-61
2023/02/04 11:32:37;;;;;;;18.37;4.17;;;10.60;99.90;;;;;;5026437;28;20292;-61
2023/02/04 11:35:09;;;;;;;19.43;3.50;;;10.20;99.90;;;;;;5031764;28;20663;-61
2023/02/04 11:37:39;;;;;;;11.77;4.70;;;10.10;99.90;;;;;;5028949;28;20232;-61
2023/02/04 11:40:26;;;;;;;17.60;3.87;;;10.30;99.90;;;;;;5027438;28;20767;-61
2023/02/04 11:43:01;;;;;;;16.33;3.70;;;10.50;99.90;;;;;;5021978;28;20248;-60
2023/02/04 11:45:31;;;;;;;17.67;4.37;;;10.30;99.90;;;;;;5033337;28;20222;-61
2023/02/04 11:48:02;;;;;;;23.83;4.27;;;10.30;99.90;;;;;;5032159;28;20671;-61
2023/02/04 11:50:32;;;;;;;16.07;4.00;;;10.20;99.90;;;;;;5030182;28;20619;-60
2023/02/04 11:53:01;;;;;;;19.63;4.07;;;10.30;99.90;;;;;;5036145;28;20248;-60
2023/02/04 11:55:29;;;;;;;15.93;4.33;;;10.20;99.90;;;;;;5030343;28;20313;-60
2023/02/04 11:57:57;;;;;;;19.37;3.27;;;9.90;99.90;;;;;;5029353;28;20294;-61
2023/02/04 12:00:28;;;;;;;15.33;3.93;;;10.00;99.90;;;;;;5032931;28;20341;-60
2023/02/04 12:02:58;;;;;;;16.33;4.87;;;10.10;99.90;;;;;;5035689;28;20689;-60
2023/02/04 12:05:39;;;;;;;18.00;3.80;;;10.10;99.90;;;;;;5033381;28;20199;-61
2023/02/04 12:08:24;;;;;;;14.03;4.00;;;10.30;99.90;;;;;;5030929;28;20268;-60
2023/02/04 12:11:04;;;;;;;16.57;4.83;;;10.50;99.90;;;;;;5034563;28;20202;-63
2023/02/04 12:13:32;;;;;;;20.17;4.73;;;10.80;99.90;;;;;;5031262;28;20296;-60
2023/02/04 12:16:01;;;;;;;17.20;4.27;;;11.10;99.90;;;;;;5032510;28;20207;-61
2023/02/04 12:18:29;;;;;;;15.40;3.90;;;11.30;99.90;;;;;;5035400;28;20223;-61
2023/02/04 12:20:57;;;;;;;24.30;4.67;;;11.10;99.90;;;;;;5033442;28;20667;-61
2023/02/04 12:23:25;;;;;;;18.73;4.70;;;11.30;99.90;;;;;;5032812;28;20205;-62
2023/02/04 12:25:52;;;;;;;15.53;3.43;;;11.30;99.90;;;;;;5034394;28;20660;-61
2023/02/04 12:28:19;;;;;;;16.37;5.20;;;11.60;99.90;;;;;;5032627;28;20272;-61
2023/02/04 12:30:46;;;;;;;17.10;4.43;;;11.40;99.90;;;;;;5035297;28;20203;-61
2023/02/04 12:33:13;;;;;;;16.00;3.40;;;11.80;99.90;;;;;;5033642;28;20662;-60
2023/02/04 12:35:41;;;;;;;16.87;3.93;;;12.00;99.90;;;;;;5029653;28;20235;-60
2023/02/04 12:38:09;;;;;;;19.37;5.60;;;12.00;99.90;;;;;;5031326;28;20250;-62
2023/02/04 12:40:36;;;;;;;15.10;4.77;;;12.00;99.90;;;;;;5022438;28;20425;-61
2023/02/04 12:43:03;;;;;;;16.43;4.20;;;11.90;99.90;;;;;;5031340;28;20307;-60
2023/02/04 12:45:30;;;;;;;20.77;4.80;;;12.00;99.90;;;;;;5025376;28;20334;-60
2023/02/04 12:47:57;;;;;;;16.10;4.60;;;12.00;99.90;;;;;;5017674;28;20239;-60
2023/02/04 12:50:25;;;;;;;16.10;3.90;;;12.10;99.90;;;;;;5024375;28;20199;-62